Time;durP1;ratioP1;P1;durP2;ratioP2;P2;SDS_P1;SDS_P2;PMS_P1;PMS_P2;Temp;Humidity;BMP_temperature;BMP_pressure;BME280_temperature;BME280_humidity;BME280_pressure;Samples;Min_cycle;Max_cycle;Signal;HPM_P1;HPM_P2
2021/11/12 00:03:23;;;;;;;74.17;48.10;;;;;;;10.05;87.50;102233.25;6206235;28;20700;-64
2021/11/12 00:14:02;;;;;;;63.33;41.27;;;;;;;10.34;85.69;102236.31;6207501;28;20247;-63
2021/11/12 00:17:27;;;;;;;66.43;44.63;;;;;;;10.17;86.39;102237.75;6208664;28;20274;-64
2021/11/12 00:20:48;;;;;;;66.87;44.10;;;;;;;10.24;87.17;102231.81;6212449;28;20197;-63
2021/11/12 00:24:10;;;;;;;67.33;43.13;;;;;;;10.46;85.66;102225.19;6207915;28;20656;-63
2021/11/12 00:27:34;;;;;;;60.07;40.87;;;;;;;11.02;83.20;102221.56;6204031;28;20529;-63
2021/11/12 00:31:00;;;;;;;61.00;38.43;;;;;;;10.97;82.34;102225.84;6206706;28;20624;-63
2021/11/12 00:34:48;;;;;;;61.20;39.97;;;;;;;10.48;84.61;102218.28;6204949;28;20232;-63
2021/11/12 00:38:12;;;;;;;56.50;38.37;;;;;;;9.92;86.61;102218.28;6204982;28;20319;-63
2021/11/12 00:41:38;;;;;;;58.77;39.90;;;;;;;10.12;86.70;102214.28;6214981;28;20213;-63
2021/11/12 00:45:04;;;;;;;60.70;39.97;;;;;;;10.40;85.44;102212.09;6214751;28;20474;-63
2021/11/12 00:48:27;;;;;;;62.00;40.93;;;;;;;9.82;87.44;102209.44;6209147;28;20224;-63
2021/11/12 00:51:50;;;;;;;61.03;40.53;;;;;;;9.87;88.40;102205.22;6211049;28;20757;-64
2021/11/12 00:55:12;;;;;;;66.60;40.10;;;;;;;9.99;87.54;102213.19;6214669;28;20225;-63
2021/11/12 00:58:34;;;;;;;73.63;43.63;;;;;;;10.07;87.01;102210.72;6207732;28;20233;-63
2021/11/12 01:01:55;;;;;;;67.03;42.43;;;;;;;9.72;88.15;102203.22;6209302;28;21364;-63
2021/11/12 01:05:16;;;;;;;66.37;40.80;;;;;;;9.38;90.58;102212.16;6222388;28;20204;-63
2021/11/12 01:08:37;;;;;;;69.10;44.20;;;;;;;9.86;89.46;102206.03;6211473;28;20224;-63
2021/11/12 01:11:59;;;;;;;69.13;42.20;;;;;;;9.82;89.23;102212.91;6208766;28;20335;-63
2021/11/12 01:15:21;;;;;;;67.70;40.47;;;;;;;10.00;87.84;102214.06;6215830;28;20228;-62
2021/11/12 01:18:43;;;;;;;67.23;44.50;;;;;;;9.88;87.62;102212.13;6209542;28;20236;-62
2021/11/12 01:22:06;;;;;;;69.47;41.73;;;;;;;9.96;86.99;102205.31;6202551;28;20227;-63
2021/11/12 01:25:27;;;;;;;65.27;41.17;;;;;;;9.70;87.32;102204.06;6219019;28;20548;-62
2021/11/12 01:28:48;;;;;;;69.53;40.53;;;;;;;9.72;88.25;102205.81;6226928;28;20228;-62
2021/11/12 01:32:21;;;;;;;64.07;43.43;;;;;;;9.97;87.42;102203.63;6228947;28;20314;-64
2021/11/12 01:35:42;;;;;;;63.60;38.13;;;;;;;10.18;85.41;102187.47;6213570;28;20208;-63
2021/11/12 01:39:07;;;;;;;54.47;36.03;;;;;;;10.84;83.60;102189.22;6210918;28;20232;-63
2021/11/12 01:42:56;;;;;;;69.57;40.27;;;;;;;10.44;83.90;102180.03;6208436;28;20232;-63
2021/11/12 01:46:32;;;;;;;59.33;39.80;;;;;;;10.94;82.13;102174.56;6209194;28;20773;-64
2021/11/12 01:49:56;;;;;;;56.83;36.77;;;;;;;10.87;82.01;102174.47;6209143;28;20235;-63
2021/11/12 01:53:27;;;;;;;51.03;35.83;;;;;;;10.83;81.69;102174.41;6209646;28;20237;-63
2021/11/12 01:56:58;;;;;;;50.73;36.40;;;;;;;10.87;80.61;102162.31;6220450;28;20213;-63
2021/11/12 02:00:25;;;;;;;56.53;39.33;;;;;;;10.94;80.32;102160.66;6217466;28;20222;-63
2021/11/12 02:03:46;;;;;;;52.93;34.23;;;;;;;10.66;81.96;102162.06;6217330;28;20571;-64
2021/11/12 02:07:09;;;;;;;54.63;37.00;;;;;;;10.43;81.73;102160.94;6219406;28;20565;-63
2021/11/12 02:10:31;;;;;;;44.07;32.23;;;;;;;10.71;81.65;102169.06;6205053;28;20200;-63
2021/11/12 02:13:52;;;;;;;51.70;36.20;;;;;;;10.23;82.48;102164.94;6206609;28;20228;-63
2021/11/12 02:17:15;;;;;;;47.73;33.97;;;;;;;10.64;82.09;102167.25;6206484;28;20256;-63
2021/11/12 02:20:41;;;;;;;49.27;35.23;;;;;;;10.35;82.45;102159.06;6208480;28;20204;-64
2021/11/12 02:24:06;;;;;;;43.20;31.90;;;;;;;10.72;81.05;102167.34;6221696;28;20318;-61
2021/11/12 02:27:33;;;;;;;47.67;33.27;;;;;;;10.84;80.84;102150.13;6227056;28;20217;-63
2021/11/12 02:30:55;;;;;;;51.23;37.17;;;;;;;10.67;81.81;102143.84;6218797;28;20202;-63
2021/11/12 02:34:16;;;;;;;49.37;35.43;;;;;;;10.41;83.01;102144.41;6208539;28;20775;-63
2021/11/12 02:37:37;;;;;;;49.30;35.63;;;;;;;10.78;81.32;102138.78;6213102;28;20637;-63
2021/11/12 02:41:00;;;;;;;48.73;34.97;;;;;;;10.53;82.21;102143.69;6209716;28;20192;-64
2021/11/12 02:44:23;;;;;;;45.33;35.53;;;;;;;10.05;83.48;102145.59;6212960;28;20422;-62
2021/11/12 02:47:44;;;;;;;55.20;37.57;;;;;;;9.91;85.05;102141.94;6214539;28;20237;-63
2021/11/12 02:51:09;;;;;;;49.50;35.33;;;;;;;10.09;85.00;102138.72;6217684;28;20232;-64
2021/11/12 02:54:30;;;;;;;48.67;34.60;;;;;;;10.19;84.31;102137.13;6204434;28;20324;-63
2021/11/12 02:57:53;;;;;;;56.43;40.77;;;;;;;10.09;84.52;102130.91;6210852;28;20240;-63
2021/11/12 03:01:15;;;;;;;49.37;37.33;;;;;;;9.94;84.00;102126.34;6214411;28;20201;-63
2021/11/12 03:04:35;;;;;;;51.07;35.50;;;;;;;9.96;84.52;102124.66;6216759;28;20501;-63
2021/11/12 03:07:56;;;;;;;45.67;35.00;;;;;;;10.51;82.83;102118.47;6207512;28;20707;-63
2021/11/12 03:11:18;;;;;;;47.40;36.53;;;;;;;10.71;81.58;102116.97;6208819;28;20201;-63
2021/11/12 03:14:40;;;;;;;44.57;35.47;;;;;;;10.76;80.72;102110.09;6209227;28;20205;-63
2021/11/12 03:18:01;;;;;;;49.33;36.53;;;;;;;10.59;80.97;102111.63;6206292;28;20240;-64
2021/11/12 03:21:24;;;;;;;44.13;35.37;;;;;;;10.68;80.70;102106.50;6211115;28;20209;-63
2021/11/12 03:24:49;;;;;;;49.27;36.40;;;;;;;10.90;80.09;102101.53;6213246;28;20221;-64
2021/11/12 03:28:18;;;;;;;53.60;39.03;;;;;;;11.00;79.26;102093.81;6217055;28;22288;-63
2021/11/12 04:00:56;;;;;;;64.13;43.53;;;;;;;10.50;81.43;102085.47;6216318;28;20196;-63
2021/11/12 04:04:31;;;;;;;59.93;40.03;;;;;;;10.49;81.33;102091.50;6222889;28;20713;-62
2021/11/12 04:19:09;;;;;;;54.73;37.53;;;;;;;10.64;80.54;102078.66;6195663;28;20617;-63
2021/11/12 05:13:49;;;;;;;56.17;40.93;;;;;;;10.59;80.87;102068.22;6208021;28;20228;-63
2021/11/12 05:50:14;;;;;;;61.83;41.67;;;;;;;9.58;85.76;102039.13;6036482;29;20214;-63
2021/11/12 05:57:15;;;;;;;53.17;38.80;;;;;;;10.10;82.20;102043.28;6027612;29;20242;-64
2021/11/12 06:00:36;;;;;;;49.50;37.50;;;;;;;10.20;82.21;102026.94;6038267;29;20215;-63
2021/11/12 06:03:57;;;;;;;49.87;38.80;;;;;;;10.03;82.34;102022.38;6045013;29;20257;-63
2021/11/12 06:07:18;;;;;;;48.20;34.87;;;;;;;10.10;81.84;102017.25;6043864;29;20230;-63
2021/11/12 06:10:39;;;;;;;94.33;40.20;;;;;;;9.68;82.68;102008.94;6035930;29;20215;-64
2021/11/12 06:14:03;;;;;;;107.27;46.43;;;;;;;9.06;85.32;102012.34;6018791;29;20250;-63
2021/11/12 06:17:24;;;;;;;50.60;38.13;;;;;;;10.00;83.60;102004.16;6024971;29;20237;-62
2021/11/12 06:20:45;;;;;;;51.37;37.20;;;;;;;9.98;82.67;102007.56;6037429;29;20301;-63
2021/11/12 06:24:06;;;;;;;62.70;40.50;;;;;;;9.56;84.48;102000.97;6025948;29;20613;-64
2021/11/12 06:27:27;;;;;;;49.17;36.53;;;;;;;10.05;82.64;102010.28;6024145;29;20230;-64
2021/11/12 06:30:50;;;;;;;59.13;38.07;;;;;;;9.98;82.49;102002.38;6040432;29;20367;-63
2021/11/12 06:34:11;;;;;;;54.63;34.00;;;;;;;9.63;83.38;101990.66;6048742;29;20798;-64
2021/11/12 06:37:32;;;;;;;50.73;35.37;;;;;;;9.90;82.76;101978.84;6037816;29;20325;-64
2021/11/12 06:40:55;;;;;;;42.53;31.23;;;;;;;9.78;82.77;101976.09;6035214;29;20226;-64
2021/11/12 06:44:42;;;;;;;52.73;32.20;;;;;;;9.66;82.13;101972.47;6032774;29;20234;-63
2021/11/12 06:51:43;;;;;;;40.53;28.07;;;;;;;9.25;84.60;101966.72;6084791;28;20555;-65
2021/11/12 06:55:05;;;;;;;53.37;30.57;;;;;;;9.03;85.57;101975.91;6084466;29;20200;-64
2021/11/12 06:58:26;;;;;;;48.13;29.70;;;;;;;9.23;85.08;101984.03;6076245;28;20700;-64
2021/11/12 07:01:47;;;;;;;87.00;31.20;;;;;;;9.11;85.21;101983.81;6062784;28;20236;-64
2021/11/12 07:05:10;;;;;;;43.37;28.87;;;;;;;9.64;83.47;101981.13;6049352;29;20217;-64
2021/11/12 07:08:31;;;;;;;43.57;28.13;;;;;;;9.74;83.28;101977.78;6046441;28;20237;-62
2021/11/12 07:11:52;;;;;;;36.20;24.83;;;;;;;9.62;83.50;101991.50;6052199;28;20620;-62
2021/11/12 07:15:15;;;;;;;32.90;22.27;;;;;;;9.57;83.56;101998.38;6057744;29;20202;-63
2021/11/12 07:18:36;;;;;;;33.63;25.03;;;;;;;9.54;83.88;101992.25;6058220;28;20225;-62
2021/11/12 07:21:58;;;;;;;47.93;28.67;;;;;;;9.35;84.13;101993.72;6063837;28;20226;-62
2021/11/12 07:25:19;;;;;;;41.60;24.37;;;;;;;9.18;85.11;101990.88;6066879;29;20198;-62
2021/11/12 07:28:40;;;;;;;48.17;22.67;;;;;;;8.83;87.05;101991.16;6051363;28;20237;-63
2021/11/12 07:32:01;;;;;;;36.13;21.97;;;;;;;8.77;88.17;101978.94;6067582;28;20241;-62
2021/11/12 07:35:27;;;;;;;38.83;22.90;;;;;;;9.04;87.05;101975.06;6084480;29;20209;-63
2021/11/12 07:38:52;;;;;;;40.47;23.50;;;;;;;8.95;87.48;101967.97;6074298;28;20339;-62
2021/11/12 07:42:20;;;;;;;35.67;22.80;;;;;;;9.09;86.72;101960.41;6084220;28;20232;-63
2021/11/12 07:45:51;;;;;;;29.67;20.07;;;;;;;9.15;86.82;101973.50;6079823;29;20196;-63
2021/11/12 07:49:14;;;;;;;23.30;14.23;;;;;;;8.67;87.33;101966.66;6084845;28;20236;-62
2021/11/12 07:52:38;;;;;;;23.03;14.60;;;;;;;8.91;86.25;101950.59;6069773;28;20240;-62
2021/11/12 07:56:00;;;;;;;25.03;16.60;;;;;;;8.72;86.39;101933.84;6073986;29;20316;-62
2021/11/12 07:59:21;;;;;;;31.60;16.40;;;;;;;8.73;87.67;101940.78;6083222;28;20275;-63
2021/11/12 08:02:42;;;;;;;25.27;14.93;;;;;;;8.82;85.58;101948.75;6085503;28;20232;-62
2021/11/12 08:06:06;;;;;;;24.57;15.67;;;;;;;8.96;86.95;101953.28;6086440;29;20197;-62
2021/11/12 08:09:30;;;;;;;32.53;18.03;;;;;;;8.98;86.68;101957.66;6081611;28;20236;-63
2021/11/12 08:13:00;;;;;;;29.57;18.80;;;;;;;9.20;85.84;101953.63;6070598;28;20237;-62
2021/11/12 08:16:32;;;;;;;24.73;15.17;;;;;;;8.99;86.30;101940.31;6055402;29;20630;-63
2021/11/12 08:19:56;;;;;;;25.20;16.13;;;;;;;9.47;84.43;101934.09;6076876;29;20355;-62
2021/11/12 08:23:23;;;;;;;28.13;18.00;;;;;;;9.46;84.36;101938.44;6078530;28;20256;-62
2021/11/12 08:27:00;;;;;;;32.83;18.40;;;;;;;8.81;86.71;101928.78;6082433;28;20245;-63
2021/11/12 08:30:32;;;;;;;27.37;17.73;;;;;;;8.80;87.54;101924.47;6083906;29;20240;-63
2021/11/12 08:33:55;;;;;;;31.57;17.43;;;;;;;8.75;87.62;101928.69;6088426;28;20229;-62
2021/11/12 08:37:23;;;;;;;27.60;17.47;;;;;;;9.22;86.98;101935.47;6077140;28;20236;-63
2021/11/12 08:40:55;;;;;;;28.17;17.27;;;;;;;9.09;86.08;101934.41;6082370;29;20201;-63
2021/11/12 08:44:22;;;;;;;28.23;19.33;;;;;;;9.57;84.21;101920.34;6081864;28;20255;-63
2021/11/12 08:47:48;;;;;;;32.60;18.50;;;;;;;9.44;84.24;101921.94;6085258;28;20629;-63
2021/11/12 08:51:13;;;;;;;29.83;19.47;;;;;;;9.61;83.71;101914.31;6091017;29;20216;-63
2021/11/12 08:54:36;;;;;;;26.13;17.00;;;;;;;9.92;82.65;101908.63;6080689;29;20232;-63
2021/11/12 08:57:58;;;;;;;32.70;19.83;;;;;;;10.09;82.44;101911.41;6090996;28;20237;-63
2021/11/12 09:01:20;;;;;;;30.67;18.43;;;;;;;9.46;83.31;101906.34;6088926;29;20197;-63
2021/11/12 09:04:44;;;;;;;26.40;15.20;;;;;;;9.23;85.63;101906.91;6096788;29;20222;-63
2021/11/12 09:08:05;;;;;;;29.33;18.30;;;;;;;9.49;85.18;101897.72;6094003;28;20232;-62
2021/11/12 09:11:26;;;;;;;34.30;20.40;;;;;;;9.56;84.60;101899.53;6093162;29;20197;-64
2021/11/12 09:14:49;;;;;;;32.17;18.47;;;;;;;9.56;84.96;101902.16;6094685;29;20221;-64
2021/11/12 09:18:10;;;;;;;36.87;20.87;;;;;;;9.28;85.96;101899.16;6091113;28;20638;-64
2021/11/12 09:21:33;;;;;;;38.07;20.70;;;;;;;9.27;86.96;101893.09;6090236;28;20212;-63
2021/11/12 09:24:53;;;;;;;34.63;20.50;;;;;;;9.61;84.56;101893.50;6087779;29;20212;-64
2021/11/12 09:28:16;;;;;;;32.00;18.20;;;;;;;9.47;84.82;101892.47;6090443;28;20229;-62
2021/11/12 09:31:37;;;;;;;31.10;18.50;;;;;;;9.75;84.19;101882.41;6086460;28;20208;-64
2021/11/12 09:34:58;;;;;;;30.90;19.67;;;;;;;9.65;84.34;101884.94;6088480;29;20200;-65
2021/11/12 09:38:20;;;;;;;27.67;16.80;;;;;;;9.51;84.95;101881.25;6087422;28;20240;-65
2021/11/12 09:41:41;;;;;;;21.30;13.50;;;;;;;9.52;85.04;101888.22;6087525;28;20288;-64
2021/11/12 09:45:05;;;;;;;19.50;14.53;;;;;;;9.37;84.80;101885.44;6094838;29;20201;-63
2021/11/12 09:48:26;;;;;;;16.50;11.47;;;;;;;9.84;82.85;101879.91;6092121;28;20264;-64
2021/11/12 09:51:47;;;;;;;16.40;12.30;;;;;;;9.38;84.42;101888.06;6099077;28;20212;-64
2021/11/12 09:55:11;;;;;;;15.67;12.07;;;;;;;9.68;83.44;101878.00;6094927;29;20295;-65
2021/11/12 09:58:33;;;;;;;15.33;11.43;;;;;;;9.80;82.33;101880.75;6092278;28;20241;-64
2021/11/12 10:01:53;;;;;;;13.13;10.13;;;;;;;9.38;83.34;101875.06;6086132;28;20376;-64
2021/11/12 10:05:17;;;;;;;11.43;10.17;;;;;;;9.42;83.37;101860.34;6093956;29;20316;-64
2021/11/12 10:08:39;;;;;;;12.23;10.60;;;;;;;9.87;80.87;101859.16;6090312;28;20241;-64
2021/11/12 10:12:01;;;;;;;12.37;10.73;;;;;;;9.96;80.27;101859.22;6085344;28;20237;-64
2021/11/12 10:15:29;;;;;;;12.13;10.93;;;;;;;10.28;80.91;101861.28;6087922;29;20457;-65
2021/11/12 10:19:04;;;;;;;14.93;12.40;;;;;;;10.42;78.13;101849.25;6093277;28;20240;-64
2021/11/12 10:22:29;;;;;;;10.87;9.77;;;;;;;10.10;78.05;101861.09;6093446;28;20237;-65
2021/11/12 10:25:56;;;;;;;11.70;10.50;;;;;;;9.79;79.94;101846.06;6095453;29;20213;-64
2021/11/12 10:29:23;;;;;;;10.37;9.47;;;;;;;10.14;79.09;101852.44;6095836;28;20228;-64
2021/11/12 10:32:45;;;;;;;9.47;8.50;;;;;;;10.11;78.85;101842.03;6090395;28;20229;-65
2021/11/12 10:36:08;;;;;;;11.20;10.07;;;;;;;10.30;77.85;101835.25;6092711;29;20216;-65
2021/11/12 10:39:31;;;;;;;10.13;9.00;;;;;;;10.02;78.87;101838.47;6091986;28;20890;-64
2021/11/12 10:42:54;;;;;;;11.53;10.43;;;;;;;10.30;77.92;101837.84;6094115;28;20225;-65
2021/11/12 10:46:18;;;;;;;10.67;9.57;;;;;;;10.57;76.63;101847.66;6091000;29;20209;-64
2021/11/12 10:49:41;;;;;;;10.97;9.90;;;;;;;10.70;76.80;101844.28;6066429;29;20226;-64
2021/11/12 10:53:07;;;;;;;10.77;9.70;;;;;;;10.92;75.20;101828.78;6082642;28;20232;-65
2021/11/12 10:56:49;;;;;;;12.30;11.30;;;;;;;10.88;75.70;101834.84;6095576;29;20312;-64
2021/11/12 11:00:17;;;;;;;11.63;10.53;;;;;;;10.91;75.99;101838.31;6097468;29;20307;-65
2021/11/12 11:03:39;;;;;;;11.27;10.23;;;;;;;10.77;75.41;101822.59;6093556;28;20237;-65
2021/11/12 11:07:19;;;;;;;10.03;9.10;;;;;;;11.05;74.63;101814.94;6096744;28;20232;-65
2021/11/12 11:10:42;;;;;;;12.33;11.17;;;;;;;10.68;76.68;101808.63;6097065;29;20754;-65
2021/11/12 11:14:03;;;;;;;11.10;10.07;;;;;;;10.74;77.92;101796.53;6082328;28;20244;-64
2021/11/12 11:17:26;;;;;;;12.90;11.53;;;;;;;10.56;76.60;101793.78;6085811;28;20776;-64
2021/11/12 11:20:56;;;;;;;11.87;10.60;;;;;;;10.26;78.09;101790.09;6090038;29;20296;-64
2021/11/12 11:24:32;;;;;;;11.20;10.20;;;;;;;10.51;77.42;101780.75;6090250;28;20224;-65
2021/11/12 11:27:54;;;;;;;12.97;11.50;;;;;;;11.22;75.03;101776.78;6092579;28;20362;-65
2021/11/12 11:31:16;;;;;;;13.90;11.93;;;;;;;11.15;75.05;101764.56;6094146;29;20443;-65
2021/11/12 11:34:38;;;;;;;12.00;10.87;;;;;;;10.96;74.70;101757.56;6091280;29;20232;-65
2021/11/12 11:38:00;;;;;;;14.77;12.43;;;;;;;10.69;76.24;101753.06;6077906;28;20237;-65
2021/11/12 11:41:24;;;;;;;13.47;11.97;;;;;;;10.44;76.36;101753.78;6070435;29;20213;-64
2021/11/12 11:44:45;;;;;;;11.70;10.57;;;;;;;11.09;74.88;101759.34;6093835;29;20246;-65
2021/11/12 11:48:07;;;;;;;12.83;10.33;;;;;;;11.00;75.03;101747.13;6089085;28;20240;-65
2021/11/12 11:51:32;;;;;;;13.20;11.80;;;;;;;11.11;75.01;101735.88;6094880;29;20232;-64
2021/11/12 11:54:55;;;;;;;12.33;11.03;;;;;;;10.83;76.04;101723.59;6092138;29;20518;-64
2021/11/12 11:58:31;;;;;;;13.23;11.10;;;;;;;10.23;77.08;101720.63;6091923;28;20236;-65
2021/11/12 12:01:53;;;;;;;12.13;10.90;;;;;;;10.33;77.05;101713.81;6087114;28;20384;-64
2021/11/12 12:05:15;;;;;;;11.73;9.57;;;;;;;10.71;76.53;101713.13;6085814;29;20208;-64
2021/11/12 12:08:48;;;;;;;12.07;10.70;;;;;;;10.68;77.12;101702.69;6089172;28;20727;-65
2021/11/12 12:12:11;;;;;;;14.50;10.80;;;;;;;10.63;76.57;101707.88;6094417;28;20240;-65
2021/11/12 12:15:40;;;;;;;10.83;9.73;;;;;;;10.71;76.94;101694.03;6089863;29;20503;-66
2021/11/12 12:19:02;;;;;;;11.97;10.03;;;;;;;10.63;76.74;101694.84;6091111;28;20236;-65
2021/11/12 12:34:24;;;;;;;9.50;8.53;;;;;;;10.98;74.67;101662.00;6083085;28;20244;-64
2021/11/12 12:38:22;;;;;;;9.90;8.10;;;;;;;10.84;75.36;101662.81;6084726;28;20497;-64
2021/11/12 13:22:41;;;;;;;10.20;9.17;;;;;;;11.13;74.52;101594.25;6099466;28;20256;-64
2021/11/12 13:26:04;;;;;;;11.33;10.07;;;;;;;10.80;75.49;101585.50;6098750;29;20464;-65
2021/11/12 13:29:25;;;;;;;13.60;9.87;;;;;;;10.25;77.16;101591.38;6089732;28;20232;-65
2021/11/12 13:32:46;;;;;;;11.27;10.03;;;;;;;10.34;76.73;101584.50;6092087;28;20232;-65
2021/11/12 13:36:21;;;;;;;12.03;8.77;;;;;;;10.57;75.51;101589.78;6087699;29;20201;-64
2021/11/12 13:39:43;;;;;;;9.50;7.70;;;;;;;10.70;74.59;101570.72;6088772;28;20232;-65
2021/11/12 13:43:05;;;;;;;7.77;6.40;;;;;;;10.33;75.98;101575.81;6100016;28;20586;-64
2021/11/12 13:46:27;;;;;;;7.50;6.80;;;;;;;10.60;74.91;101568.94;6091510;29;20201;-64
2021/11/12 13:49:50;;;;;;;8.37;5.97;;;;;;;10.56;74.91;101569.81;6089851;29;20241;-66
2021/11/12 13:53:11;;;;;;;6.53;5.87;;;;;;;10.49;74.53;101557.63;6083735;28;20241;-66
2021/11/12 13:56:36;;;;;;;4.23;3.83;;;;;;;10.44;74.14;101553.28;6088605;28;20216;-65
2021/11/12 13:59:59;;;;;;;5.60;4.20;;;;;;;10.22;73.61;101546.22;6082217;29;20303;-64
2021/11/12 14:03:33;;;;;;;5.20;4.60;;;;;;;10.54;72.54;101540.28;6084001;28;20592;-65
2021/11/12 14:06:55;;;;;;;3.67;3.37;;;;;;;10.34;72.15;101543.69;6086137;28;20232;-64
2021/11/12 14:10:17;;;;;;;5.30;4.80;;;;;;;10.41;71.89;101549.78;6089905;29;20225;-64
2021/11/12 14:13:40;;;;;;;4.37;3.80;;;;;;;10.17;72.17;101560.94;6069766;28;20249;-64
2021/11/12 14:17:26;;;;;;;5.40;4.83;;;;;;;10.66;70.75;101555.94;6059880;28;20229;-64
2021/11/12 14:20:55;;;;;;;4.40;4.00;;;;;;;9.98;72.12;101547.88;6089266;29;20225;-64
2021/11/12 14:24:30;;;;;;;4.77;4.10;;;;;;;10.50;71.02;101539.41;6091616;29;21900;-64
2021/11/12 14:28:09;;;;;;;5.27;4.77;;;;;;;10.34;71.62;101535.03;6079565;29;20238;-65
2021/11/12 14:31:59;;;;;;;6.57;5.00;;;;;;;9.81;72.27;101529.56;6068558;29;20189;-65
2021/11/12 14:35:31;;;;;;;8.67;6.67;;;;;;;10.28;71.65;101527.16;6094686;29;20620;-64
2021/11/12 14:38:57;;;;;;;7.10;5.57;;;;;;;10.39;70.36;101517.66;6091145;28;20255;-64
2021/11/12 14:46:11;;;;;;;11.47;8.17;;;;;;;9.84;72.74;101510.47;6093853;29;20594;-64
2021/11/12 14:49:35;;;;;;;7.70;6.97;;;;;;;9.85;72.35;101517.44;6080291;29;20336;-65
2021/11/12 14:53:15;;;;;;;6.63;6.03;;;;;;;10.13;71.00;101518.41;6079323;28;20232;-64
2021/11/12 14:56:36;;;;;;;7.43;6.73;;;;;;;9.87;71.77;101507.91;6068551;28;20201;-64
2021/11/12 15:00:01;;;;;;;8.50;7.10;;;;;;;9.72;71.84;101500.03;6109927;28;20217;-64
2021/11/12 15:03:23;;;;;;;7.03;6.43;;;;;;;10.17;70.96;101490.66;6083857;28;20240;-66
2021/11/12 15:06:45;;;;;;;8.40;7.70;;;;;;;9.75;70.75;101489.63;6079250;28;20225;-62
2021/11/12 15:10:11;;;;;;;7.70;7.00;;;;;;;10.16;69.14;101483.75;6059029;29;20201;-63
2021/11/12 15:13:34;;;;;;;9.53;7.67;;;;;;;10.04;69.71;101480.22;6077930;29;20622;-63
2021/11/12 15:16:56;;;;;;;9.17;8.27;;;;;;;9.75;68.65;101489.63;6082906;28;20240;-66
2021/11/12 15:20:18;;;;;;;10.50;9.57;;;;;;;9.84;68.48;101492.28;6084851;29;20499;-64
2021/11/12 15:23:54;;;;;;;9.53;8.53;;;;;;;9.96;68.36;101487.13;6082371;28;20753;-64
2021/11/12 15:27:26;;;;;;;9.20;8.40;;;;;;;9.76;68.91;101470.56;6092016;28;20224;-63
2021/11/12 15:30:53;;;;;;;9.43;8.53;;;;;;;9.68;68.31;101473.13;6091191;29;20752;-63
2021/11/12 15:34:14;;;;;;;9.53;8.73;;;;;;;9.81;68.03;101459.31;6095714;28;20229;-64
2021/11/12 15:37:41;;;;;;;10.83;9.73;;;;;;;9.89;68.14;101461.97;6091345;28;20233;-65
2021/11/12 15:41:06;;;;;;;9.83;8.87;;;;;;;9.91;67.79;101455.03;6091826;29;20213;-64
2021/11/12 15:44:30;;;;;;;9.87;8.57;;;;;;;10.09;67.73;101449.00;6089601;28;20316;-64
2021/11/12 15:47:52;;;;;;;9.40;8.40;;;;;;;10.17;70.33;101441.22;6091913;28;20236;-64
2021/11/12 15:51:31;;;;;;;10.57;9.60;;;;;;;10.09;67.42;101440.34;6093243;29;20208;-63
2021/11/12 15:55:02;;;;;;;11.10;10.10;;;;;;;9.79;68.47;101432.44;6093694;29;20228;-62
2021/11/12 16:06:18;;;;;;;11.97;10.80;;;;;;;9.37;69.63;101389.75;6094505;29;20200;-63
2021/11/12 16:09:44;;;;;;;12.77;11.67;;;;;;;9.32;69.30;101385.41;6084914;29;21087;-63
2021/11/12 16:13:10;;;;;;;14.87;13.27;;;;;;;9.23;69.67;101368.03;6088902;28;20237;-62
2021/11/12 16:24:29;;;;;;;13.27;12.00;;;;;;;8.71;71.25;101373.75;6102881;28;20228;-64
2021/11/12 16:27:53;;;;;;;13.23;12.00;;;;;;;8.58;70.96;101387.50;6081482;28;20232;-64
2021/11/12 16:31:14;;;;;;;14.10;12.90;;;;;;;9.03;70.11;101383.50;6077962;29;20205;-64
2021/11/12 16:34:42;;;;;;;13.43;12.13;;;;;;;8.57;70.72;101389.25;6080590;29;20297;-65
2021/11/12 16:38:07;;;;;;;14.63;13.33;;;;;;;8.45;71.51;101397.78;6076786;28;20334;-64
2021/11/12 16:41:31;;;;;;;15.57;14.07;;;;;;;8.33;71.62;101389.84;6076121;29;20246;-64
2021/11/12 16:44:57;;;;;;;15.00;13.80;;;;;;;8.21;71.82;101410.50;6081304;29;21884;-64
2021/11/12 16:48:27;;;;;;;17.30;15.70;;;;;;;8.58;70.45;101405.69;6078492;28;20340;-65
2021/11/12 16:51:59;;;;;;;16.90;15.33;;;;;;;8.75;69.71;101413.63;6082802;28;20208;-66
2021/11/12 16:55:32;;;;;;;17.37;15.60;;;;;;;8.77;69.17;101399.78;6079523;29;21007;-65
2021/11/12 16:59:00;;;;;;;18.97;17.07;;;;;;;8.77;69.60;101402.38;6081054;28;20289;-63
2021/11/12 17:02:32;;;;;;;18.87;15.57;;;;;;;8.43;70.92;101407.28;6086191;28;20244;-65
2021/11/12 17:05:56;;;;;;;20.17;17.80;;;;;;;8.09;72.07;101409.50;6096940;28;20205;-64
2021/11/12 17:09:46;;;;;;;19.50;17.70;;;;;;;8.24;71.72;101416.59;6089886;28;20228;-64
2021/11/12 17:13:22;;;;;;;19.50;17.43;;;;;;;8.37;72.16;101421.88;6078368;28;20229;-65
2021/11/12 17:16:52;;;;;;;18.60;15.97;;;;;;;8.11;72.20;101413.84;6082906;28;20512;-64
2021/11/12 17:20:20;;;;;;;19.87;17.97;;;;;;;8.07;73.10;101413.81;6080820;29;20228;-64
2021/11/12 17:49:20;;;;;;;24.33;21.43;;;;;;;8.48;72.07;101415.97;6091532;28;20224;-63
2021/11/12 18:03:51;;;;;;;26.33;23.70;;;;;;;8.00;73.29;101380.00;6090123;28;20378;-65
2021/11/12 18:07:22;;;;;;;26.27;23.43;;;;;;;7.95;73.81;101385.16;6094161;28;20319;-64
2021/11/12 18:18:22;;;;;;;26.90;24.07;;;;;;;8.17;72.13;101351.66;6081596;28;20319;-66
2021/11/12 21:49:38;;;;;;;41.70;33.17;;;;;;;6.65;79.31;101192.72;6084583;29;20237;-64
2021/11/12 21:52:59;;;;;;;44.07;32.87;;;;;;;6.36;79.69;101190.63;6094696;28;20236;-65
2021/11/12 21:56:23;;;;;;;41.43;31.17;;;;;;;6.30;79.58;101177.59;6093361;29;20205;-64
2021/11/12 21:59:45;;;;;;;45.23;33.30;;;;;;;6.02;80.52;101178.91;6088192;29;20213;-64
2021/11/12 22:03:08;;;;;;;36.77;30.37;;;;;;;6.34;79.63;101176.81;6087885;28;20232;-63
2021/11/12 22:06:30;;;;;;;39.73;29.73;;;;;;;6.44;79.48;101183.84;6094386;29;20241;-63
2021/11/12 22:09:51;;;;;;;42.97;32.27;;;;;;;6.27;79.08;101180.16;6097617;29;20217;-64
2021/11/12 22:13:15;;;;;;;40.57;33.00;;;;;;;6.63;79.41;101173.72;6097777;28;20216;-65
2021/11/12 22:16:37;;;;;;;42.83;30.67;;;;;;;6.61;77.47;101171.13;6095322;28;20209;-66
2021/11/12 22:20:01;;;;;;;42.63;33.30;;;;;;;6.13;79.35;101181.63;6089424;29;20213;-63
2021/11/12 22:23:25;;;;;;;44.33;31.67;;;;;;;6.15;79.71;101179.97;6089413;28;20236;-65
2021/11/12 22:26:49;;;;;;;42.57;31.07;;;;;;;6.19;79.61;101174.88;6090474;28;20213;-64
2021/11/12 22:30:13;;;;;;;41.83;33.57;;;;;;;5.96;80.28;101174.50;6091844;29;20196;-65
2021/11/12 22:33:35;;;;;;;46.03;34.77;;;;;;;6.04;80.23;101174.63;6086928;28;20240;-64
2021/11/12 22:36:56;;;;;;;41.13;31.60;;;;;;;6.26;79.34;101173.22;6093828;28;20262;-64
2021/11/12 22:40:17;;;;;;;44.50;33.83;;;;;;;6.06;79.37;101171.22;6095695;29;20185;-64
2021/11/12 22:43:38;;;;;;;44.23;33.53;;;;;;;6.45;78.11;101174.34;6091942;28;20554;-64
2021/11/12 22:47:01;;;;;;;43.50;32.10;;;;;;;6.37;78.81;101176.84;6094834;28;20240;-64
2021/11/12 22:50:22;;;;;;;38.30;30.43;;;;;;;6.55;78.18;101165.00;6097989;29;20782;-64
2021/11/12 22:53:44;;;;;;;43.70;31.53;;;;;;;6.39;77.84;101153.56;6095018;28;20233;-64
2021/11/12 22:57:06;;;;;;;42.50;33.23;;;;;;;6.18;78.51;101161.91;6096843;28;20233;-64
2021/11/12 23:00:38;;;;;;;44.43;31.77;;;;;;;6.11;78.98;101150.63;6094654;29;20702;-64
2021/11/12 23:04:01;;;;;;;41.47;31.30;;;;;;;6.24;78.97;101149.06;6411207;23;20288;-65
2021/11/12 23:07:22;;;;;;;46.27;34.00;;;;;;;6.56;77.94;101140.88;6157240;28;21591;-64
2021/11/12 23:10:43;;;;;;;46.87;33.50;;;;;;;6.24;78.57;101118.91;6166446;28;20191;-64
2021/11/12 23:14:04;;;;;;;50.47;37.00;;;;;;;6.40;78.17;101126.88;6167347;28;20721;-64
2021/11/12 23:17:25;;;;;;;42.33;32.70;;;;;;;6.40;78.67;101121.69;6163811;28;20223;-64
2021/11/12 23:20:49;;;;;;;42.63;33.20;;;;;;;6.64;77.44;101113.34;6164626;28;21667;-64
2021/11/12 23:24:10;;;;;;;45.87;33.73;;;;;;;6.10;79.58;101100.59;6164614;28;20353;-64
2021/11/12 23:27:32;;;;;;;46.90;35.00;;;;;;;6.08;78.66;101104.00;6165873;28;20339;-64